Time;durP1;ratioP1;P1;durP2;ratioP2;P2;SDS_P1;SDS_P2;PMS_P1;PMS_P2;Temp;Humidity;BMP_temperature;BMP_pressure;BME280_temperature;BME280_humidity;BME280_pressure;Samples;Min_cycle;Max_cycle;Signal;HPM_P1;HPM_P2
2022/01/30 00:00:03;;;;;;;1.90;0.68;;;;;;;3.74;59.40;99830.94;4378433;32;34196;-70
2022/01/30 00:02:35;;;;;;;1.17;0.93;;;;;;;3.85;59.21;99822.31;4378097;32;34181;-70
2022/01/30 00:05:04;;;;;;;6.37;3.50;;;;;;;3.69;60.85;99810.09;4378130;32;33657;-71
2022/01/30 00:07:31;;;;;;;9.35;3.53;;;;;;;4.01;60.66;99810.34;4378052;32;33866;-71
2022/01/30 00:09:59;;;;;;;6.78;3.80;;;;;;;3.83;61.79;99816.31;4378277;32;35308;-70
2022/01/30 00:12:39;;;;;;;1.00;0.62;;;;;;;3.90;61.54;99806.41;4378391;32;35082;-71
2022/01/30 00:15:07;;;;;;;5.05;3.03;;;;;;;3.61;63.27;99806.78;4378065;32;34586;-71
2022/01/30 00:17:41;;;;;;;9.57;3.50;;;;;;;3.13;65.76;99801.41;4364641;32;33899;-71
2022/01/30 00:20:15;;;;;;;7.32;3.60;;;;;;;3.43;64.86;99789.34;4377905;32;33966;-71
2022/01/30 00:22:52;;;;;;;5.55;3.35;;;;;;;3.52;64.53;99783.81;4378023;32;34924;-70
2022/01/30 00:25:31;;;;;;;11.52;4.32;;;;;;;3.36;65.03;99782.31;4378155;32;34598;-74
2022/01/30 00:28:06;;;;;;;0.70;0.70;;;;;;;3.33;64.90;99772.00;4377916;32;34708;-71
2022/01/30 00:30:35;;;;;;;11.30;4.30;;;;;;;3.43;64.88;99767.91;4378043;32;34890;-71
2022/01/30 00:33:04;;;;;;;7.43;3.75;;;;;;;3.54;64.44;99757.63;4364693;32;33274;-75
2022/01/30 00:35:38;;;;;;;9.93;3.58;;;;;;;3.41;64.86;99737.81;4377857;32;33591;-70
2022/01/30 00:38:15;;;;;;;7.87;3.97;;;;;;;3.52;64.56;99739.06;4377790;32;33888;-69
2022/01/30 00:40:44;;;;;;;7.78;3.72;;;;;;;3.21;64.82;99729.66;4377650;32;34426;-70
2022/01/30 00:43:12;;;;;;;10.38;4.28;;;;;;;3.19;64.53;99715.62;4377864;32;35046;-70
2022/01/30 00:45:40;;;;;;;8.10;3.53;;;;;;;3.10;65.43;99716.84;4377885;32;33543;-71
2022/01/30 00:48:08;;;;;;;7.18;3.67;;;;;;;3.37;64.39;99711.56;4377916;32;33995;-70
2022/01/30 00:50:36;;;;;;;7.35;4.10;;;;;;;3.27;65.13;99715.47;4378000;32;34411;-75
2022/01/30 00:53:04;;;;;;;7.93;4.28;;;;;;;3.39;64.58;99714.88;4377942;32;33956;-70
2022/01/30 00:55:31;;;;;;;8.45;3.70;;;;;;;3.41;64.35;99716.34;4377882;32;34441;-71
2022/01/30 00:58:00;;;;;;;8.93;4.30;;;;;;;3.88;62.55;99716.38;4364351;32;33912;-71
2022/01/30 01:00:28;;;;;;;9.45;4.35;;;;;;;4.03;61.96;99700.06;4377683;32;33921;-71
2022/01/30 01:02:55;;;;;;;6.47;4.05;;;;;;;3.89;62.31;99693.91;4364545;32;34864;-73
2022/01/30 01:05:24;;;;;;;7.97;3.83;;;;;;;3.51;63.78;99705.19;4377577;32;33750;-71
2022/01/30 01:07:54;;;;;;;4.57;3.30;;;;;;;3.67;63.75;99706.66;4378021;32;33939;-71
2022/01/30 01:10:37;;;;;;;6.45;3.80;;;;;;;4.07;62.76;99710.19;4363769;32;35030;-71
2022/01/30 01:23:24;;;;;;;9.40;4.10;;;;;;;3.85;62.48;99682.75;4365108;32;34150;-71
2022/01/30 01:23:51;;;;;;;1.10;1.10;;;;;;;3.73;63.03;99673.66;4366593;32;34176;-71
2022/01/30 01:26:20;;;;;;;8.65;3.45;;;;;;;4.06;62.18;99681.72;4364349;32;33708;-71
2022/01/30 01:28:49;;;;;;;8.52;4.10;;;;;;;4.08;62.50;99685.00;4364021;32;34013;-74
2022/01/30 01:31:17;;;;;;;11.38;4.20;;;;;;;4.31;61.14;99681.03;4377423;32;34127;-71
2022/01/30 01:36:12;;;;;;;0.75;0.75;;;;;;;3.87;62.62;99663.75;4377267;32;34206;-71
2022/01/30 01:38:42;;;;;;;7.00;3.37;;;;;;;4.13;62.46;99643.28;4377233;32;33818;-70
2022/01/30 01:41:10;;;;;;;8.65;4.00;;;;;;;4.47;60.72;99639.47;4377086;32;35067;-69
2022/01/30 01:43:38;;;;;;;7.47;4.05;;;;;;;4.35;60.64;99642.00;4377599;32;34201;-71
2022/01/30 01:46:14;;;;;;;6.95;3.75;;;;;;;4.59;59.58;99637.78;4377192;32;34275;-75
2022/01/30 01:48:43;;;;;;;1.58;1.48;;;;;;;4.72;59.08;99635.03;4376918;32;34702;-71
2022/01/30 01:51:16;;;;;;;7.85;3.85;;;;;;;5.18;57.86;99618.88;4376953;32;35077;-72
2022/01/30 01:53:51;;;;;;;2.80;1.87;;;;;;;5.54;56.57;99610.94;4377186;32;34183;-71
2022/01/30 01:56:19;;;;;;;8.95;3.83;;;;;;;4.84;58.60;99619.06;4377258;32;33554;-73
2022/01/30 01:58:47;;;;;;;9.45;4.18;;;;;;;4.24;60.37;99613.09;4363792;32;33957;-71
2022/01/30 02:01:23;;;;;;;8.00;3.90;;;;;;;4.16;61.05;99613.31;4377124;32;34198;-71
2022/01/30 02:03:51;;;;;;;9.25;4.03;;;;;;;4.27;60.46;99612.66;4376809;32;34832;-71
2022/01/30 02:06:21;;;;;;;7.03;3.80;;;;;;;4.51;59.69;99603.06;4363504;32;33804;-71
2022/01/30 02:08:55;;;;;;;8.35;3.70;;;;;;;4.28;60.07;99608.97;4363713;32;34588;-71
2022/01/30 02:25:12;;;;;;;8.57;3.50;;;;;;;3.75;61.86;99580.34;4369842;32;34974;-71
2022/01/30 02:27:40;;;;;;;7.00;3.90;;;;;;;3.80;61.56;99571.66;4366964;32;33415;-70
2022/01/30 02:30:14;;;;;;;7.95;3.62;;;;;;;4.09;60.70;99568.50;4378883;32;33845;-71
2022/01/30 02:32:42;;;;;;;9.30;4.25;;;;;;;3.95;61.43;99566.87;4365471;32;34168;-72
2022/01/30 02:35:10;;;;;;;8.20;3.80;;;;;;;4.03;60.62;99555.94;4379057;32;34698;-71
2022/01/30 02:37:38;;;;;;;0.50;0.50;;;;;;;3.13;64.23;99550.22;4378688;32;34604;-72
2022/01/30 02:40:10;;;;;;;8.45;4.45;;;;;;;3.47;62.94;99541.16;4378714;32;33556;-71
2022/01/30 02:42:42;;;;;;;0.77;0.77;;;;;;;3.21;63.45;99528.59;4378445;32;35112;-71
2022/01/30 02:45:13;;;;;;;0.68;0.68;;;;;;;3.20;64.75;99513.56;4378715;32;34111;-70
2022/01/30 02:47:54;;;;;;;10.45;5.95;;;;;;;3.66;63.62;99501.94;4378588;32;33790;-74
2022/01/30 02:50:35;;;;;;;0.52;0.52;;;;;;;3.42;66.60;99511.47;4378753;32;33996;-71
2022/01/30 02:53:05;;;;;;;5.28;2.67;;;;;;;3.85;67.18;99496.75;4378634;32;34933;-71
2022/01/30 02:55:33;;;;;;;4.40;2.40;;;;;;;4.21;66.88;99484.59;4365316;32;34850;-71
2022/01/30 02:58:01;;;;;;;4.12;2.37;;;;;;;4.27;67.24;99494.50;4378705;32;34410;-71
2022/01/30 03:00:28;;;;;;;4.97;2.37;;;;;;;4.75;66.41;99507.44;4378506;32;34701;-71
2022/01/30 03:02:56;;;;;;;6.72;2.55;;;;;;;4.99;65.46;99497.81;4378665;32;34888;-71
2022/01/30 03:05:24;;;;;;;5.80;2.35;;;;;;;5.30;64.14;99491.53;4378443;32;34058;-70
2022/01/30 03:07:52;;;;;;;3.72;2.47;;;;;;;5.22;64.07;99493.69;4378898;32;34615;-71
2022/01/30 03:10:20;;;;;;;4.70;2.40;;;;;;;5.33;63.74;99482.19;4378491;32;34845;-72
2022/01/30 03:12:47;;;;;;;4.95;2.25;;;;;;;5.40;63.29;99485.66;4378275;32;35110;-71
2022/01/30 03:15:14;;;;;;;5.15;2.80;;;;;;;5.42;63.17;99483.56;4378962;32;34303;-71
2022/01/30 03:17:42;;;;;;;4.97;2.90;;;;;;;5.37;63.21;99480.72;4378803;32;33629;-71
2022/01/30 03:20:10;;;;;;;4.62;2.83;;;;;;;5.92;61.54;99483.44;4378605;32;33971;-71
2022/01/30 03:22:38;;;;;;;4.50;2.80;;;;;;;5.47;62.49;99480.22;4378723;32;35103;-70
2022/01/30 03:25:06;;;;;;;4.97;2.90;;;;;;;5.52;62.47;99470.41;4378532;32;34115;-71
2022/01/30 03:27:35;;;;;;;5.70;2.47;;;;;;;5.06;64.24;99452.84;4378216;32;33263;-70
2022/01/30 03:30:06;;;;;;;5.37;2.50;;;;;;;5.41;63.43;99463.06;4365313;32;33743;-71
2022/01/30 03:32:35;;;;;;;5.85;3.20;;;;;;;5.20;64.36;99464.31;4378361;32;33910;-71
2022/01/30 03:35:03;;;;;;;5.95;2.90;;;;;;;5.32;63.85;99459.03;4378474;32;34219;-73
2022/01/30 03:37:30;;;;;;;4.95;3.00;;;;;;;5.51;63.40;99449.12;4378467;32;33615;-70
2022/01/30 03:39:58;;;;;;;5.15;2.70;;;;;;;5.57;63.41;99448.22;4378370;32;34883;-70
2022/01/30 03:42:26;;;;;;;5.35;2.87;;;;;;;5.16;64.78;99451.53;4378261;32;35034;-70
2022/01/30 03:44:53;;;;;;;0.82;0.70;;;;;;;5.45;64.34;99447.31;4378374;32;34143;-71
2022/01/30 03:47:24;;;;;;;6.03;2.62;;;;;;;5.49;64.30;99433.19;4378526;32;34468;-71
2022/01/30 03:49:53;;;;;;;4.70;2.60;;;;;;;5.46;64.28;99430.13;4378228;32;33315;-71
2022/01/30 03:52:20;;;;;;;5.60;2.83;;;;;;;5.60;64.05;99437.00;4378433;32;34171;-70
2022/01/30 03:54:48;;;;;;;5.22;3.00;;;;;;;5.64;63.65;99445.47;4378237;32;34924;-72
2022/01/30 03:57:16;;;;;;;7.32;2.65;;;;;;;5.42;64.27;99463.91;4378441;32;33252;-71
2022/01/30 03:59:43;;;;;;;4.90;2.85;;;;;;;5.35;64.28;99445.94;4378449;32;34570;-70
2022/01/30 04:02:11;;;;;;;3.53;2.40;;;;;;;5.48;63.99;99439.59;4378185;32;34283;-71
2022/01/30 04:04:39;;;;;;;5.50;3.00;;;;;;;5.71;63.23;99424.69;4378391;32;34370;-71
2022/01/30 04:07:07;;;;;;;6.55;2.90;;;;;;;5.73;63.39;99428.78;4378260;32;34231;-72
2022/01/30 04:09:37;;;;;;;4.93;2.75;;;;;;;5.45;64.10;99423.09;4378267;32;34816;-70
2022/01/30 04:12:08;;;;;;;4.03;2.55;;;;;;;5.52;64.22;99424.66;4365460;32;34192;-76
2022/01/30 04:14:36;;;;;;;5.40;2.62;;;;;;;5.51;64.16;99435.66;4378007;32;34076;-70
2022/01/30 04:17:08;;;;;;;4.93;2.47;;;;;;;5.75;63.78;99421.31;4378150;32;33434;-71
2022/01/30 04:19:38;;;;;;;5.93;2.75;;;;;;;5.68;63.94;99412.50;4378434;32;34633;-70
2022/01/30 04:22:07;;;;;;;3.92;2.53;;;;;;;5.73;63.82;99417.19;4378127;32;34230;-70
2022/01/30 04:24:35;;;;;;;4.25;2.33;;;;;;;5.63;64.40;99420.41;4378238;32;35029;-70
2022/01/30 04:27:06;;;;;;;5.05;3.08;;;;;;;5.82;63.95;99412.34;4378355;32;34412;-71
2022/01/30 04:29:34;;;;;;;6.03;2.97;;;;;;;5.78;64.16;99425.41;4364825;32;34612;-71
2022/01/30 04:32:03;;;;;;;3.85;2.35;;;;;;;5.76;64.43;99419.44;4378077;32;34171;-74
2022/01/30 04:34:32;;;;;;;5.60;2.72;;;;;;;5.74;64.66;99422.37;4378159;32;34174;-72
2022/01/30 04:37:04;;;;;;;4.75;2.65;;;;;;;5.73;64.78;99409.13;4377878;32;33663;-78
2022/01/30 05:04:18;;;;;;;3.62;2.33;;;;;;;6.03;65.18;99428.03;4362832;32;34527;-72
2022/01/30 05:09:45;;;;;;;4.30;2.55;;;;;;;6.20;64.25;99422.00;4343213;32;34437;-72
2022/01/30 05:12:15;;;;;;;4.25;2.50;;;;;;;5.97;65.25;99425.44;4362735;32;34802;-72
2022/01/30 05:14:44;;;;;;;4.15;2.45;;;;;;;6.10;64.77;99423.38;4362609;32;34260;-72
2022/01/30 05:17:12;;;;;;;6.30;2.65;;;;;;;6.07;64.90;99436.47;4362711;32;34188;-72
2022/01/30 05:19:41;;;;;;;3.87;2.47;;;;;;;6.02;65.01;99423.69;4362604;32;33732;-71
2022/01/30 05:22:10;;;;;;;4.75;2.85;;;;;;;6.25;64.28;99420.28;4362939;32;33973;-76
2022/01/30 05:24:38;;;;;;;3.87;2.37;;;;;;;6.20;64.36;99419.31;4362878;32;33969;-72
2022/01/30 05:27:06;;;;;;;4.50;2.67;;;;;;;5.94;65.41;99426.69;4362946;32;34170;-71
2022/01/30 05:29:36;;;;;;;5.60;2.42;;;;;;;5.82;65.94;99418.53;4362360;32;33519;-71
2022/01/30 05:32:05;;;;;;;4.70;2.60;;;;;;;6.00;65.64;99415.03;4349662;32;34814;-71
2022/01/30 05:34:33;;;;;;;5.32;2.37;;;;;;;6.04;65.48;99413.50;4362278;32;35250;-71
2022/01/30 05:37:02;;;;;;;3.58;2.40;;;;;;;6.15;65.14;99393.06;4360738;32;34215;-67
2022/01/30 05:39:32;;;;;;;3.80;2.50;;;;;;;6.10;65.24;99409.09;4362680;32;33761;-71
2022/01/30 05:42:00;;;;;;;4.35;2.62;;;;;;;5.95;66.00;99404.94;4362674;32;34773;-68
2022/01/30 05:45:17;;;;;;;3.92;2.53;;;;;;;6.02;65.67;99412.09;4362153;32;34982;-70
2022/01/30 05:47:27;;;;;;;4.30;2.25;;;;;;;6.13;65.39;99408.63;4353376;32;34167;-69
2022/01/30 05:49:56;;;;;;;4.60;2.40;;;;;;;5.92;65.59;99408.06;4362440;32;33666;-68
2022/01/30 05:52:24;;;;;;;4.95;2.50;;;;;;;6.10;65.30;99411.78;4362447;32;34774;-69
2022/01/30 05:54:52;;;;;;;3.55;2.40;;;;;;;5.81;66.34;99405.28;4362698;32;34125;-68
2022/01/30 05:57:19;;;;;;;4.30;2.20;;;;;;;6.00;65.84;99400.75;4364428;32;34586;-69
2022/01/30 05:59:47;;;;;;;2.97;1.95;;;;;;;5.87;66.38;99409.78;4364379;32;33757;-71
2022/01/30 06:02:15;;;;;;;2.75;1.95;;;;;;;5.95;66.29;99412.19;4364175;32;33661;-72
2022/01/30 06:04:43;;;;;;;3.37;2.30;;;;;;;6.01;66.09;99416.69;4363991;32;34179;-70
2022/01/30 06:07:12;;;;;;;4.28;2.20;;;;;;;6.04;65.80;99416.22;4364411;32;34945;-74
2022/01/30 06:09:39;;;;;;;4.00;2.47;;;;;;;5.95;65.87;99415.69;4363926;32;33267;-73
2022/01/30 06:12:08;;;;;;;4.03;2.47;;;;;;;5.97;65.86;99412.78;4349342;32;33916;-71
2022/01/30 06:14:36;;;;;;;5.68;2.42;;;;;;;6.26;64.93;99402.25;4363838;32;34216;-70
2022/01/30 06:17:03;;;;;;;3.20;2.28;;;;;;;5.90;66.10;99398.56;4363678;32;34891;-69
2022/01/30 06:19:35;;;;;;;4.43;2.30;;;;;;;5.96;65.46;99394.97;4364019;32;33920;-69
2022/01/30 06:22:05;;;;;;;3.55;2.08;;;;;;;5.92;65.84;99409.94;4363964;32;34829;-68
2022/01/30 06:24:36;;;;;;;3.62;2.20;;;;;;;6.01;65.55;99424.75;4363882;32;32499;-70
2022/01/30 06:27:07;;;;;;;4.28;2.42;;;;;;;6.18;64.96;99426.81;4363636;32;33658;-70
2022/01/30 06:29:38;;;;;;;4.68;2.22;;;;;;;5.84;65.97;99418.31;4363906;32;31987;-71
2022/01/30 06:32:14;;;;;;;3.70;2.15;;;;;;;6.07;65.51;99417.62;4351425;32;33321;-70
2022/01/30 06:34:49;;;;;;;3.15;2.15;;;;;;;6.09;65.13;99402.91;4363444;32;32796;-70
2022/01/30 06:37:18;;;;;;;4.70;2.20;;;;;;;5.98;65.86;99422.50;4363506;32;34814;-72
2022/01/30 06:39:47;;;;;;;3.62;1.92;;;;;;;6.16;65.54;99414.41;4362937;32;33661;-69
2022/01/30 06:42:15;;;;;;;3.15;1.67;;;;;;;6.26;65.57;99423.78;4363583;32;34866;-68
2022/01/30 06:44:45;;;;;;;3.03;1.73;;;;;;;6.18;65.65;99441.12;4363848;32;33656;-71
2022/01/30 06:47:42;;;;;;;0.40;0.40;;;;;;;6.49;64.76;99433.84;4363501;32;32553;-68
2022/01/30 06:50:12;;;;;;;4.40;2.28;;;;;;;6.53;64.95;99445.81;4364083;32;34451;-68
2022/01/30 06:52:43;;;;;;;4.78;1.80;;;;;;;6.71;64.12;99447.59;4363383;32;33852;-67
2022/01/30 06:55:21;;;;;;;2.47;1.55;;;;;;;6.83;63.87;99444.94;4363834;32;34151;-67
2022/01/30 06:57:51;;;;;;;2.85;1.50;;;;;;;6.80;63.21;99457.00;4363171;32;32587;-67
2022/01/30 07:00:23;;;;;;;3.35;1.20;;;;;;;6.74;63.27;99455.25;4363792;32;32165;-68
2022/01/30 07:02:54;;;;;;;0.90;0.70;;;;;;;6.80;63.00;99440.00;4363622;32;32380;-66
2022/01/30 07:05:21;;;;;;;0.60;0.60;;;;;;;6.84;61.75;99441.19;4363574;32;35066;-67
2022/01/30 07:07:49;;;;;;;1.05;0.75;;;;;;;6.62;62.77;99428.25;4363196;32;35040;-73
2022/01/30 07:10:17;;;;;;;1.85;0.65;;;;;;;6.85;61.62;99427.47;4363543;32;33802;-70
2022/01/30 07:12:44;;;;;;;2.60;0.70;;;;;;;6.81;61.70;99436.28;4362985;32;33760;-68
2022/01/30 07:15:12;;;;;;;0.90;0.80;;;;;;;6.75;61.52;99427.22;4363476;32;35029;-71
2022/01/30 07:17:39;;;;;;;1.80;0.70;;;;;;;6.96;60.59;99417.75;4363341;32;34235;-67
2022/01/30 07:20:07;;;;;;;1.27;0.80;;;;;;;6.79;60.43;99417.62;4349462;32;35307;-69
2022/01/30 07:22:35;;;;;;;1.25;0.70;;;;;;;7.21;58.73;99424.81;4362995;32;33794;-67
2022/01/30 07:25:05;;;;;;;0.70;0.70;;;;;;;6.88;60.08;99418.09;4363440;32;34361;-67
2022/01/30 07:27:32;;;;;;;2.55;1.25;;;;;;;7.19;58.83;99409.69;4363184;32;35019;-67
2022/01/30 07:30:00;;;;;;;2.55;0.82;;;;;;;7.17;58.67;99401.00;4363484;32;33427;-67
2022/01/30 07:32:27;;;;;;;2.90;0.88;;;;;;;7.17;58.83;99392.91;4363464;32;34161;-68
2022/01/30 07:34:55;;;;;;;1.95;1.08;;;;;;;7.20;58.86;99413.19;4363110;32;35172;-68
2022/01/30 07:37:23;;;;;;;0.85;0.80;;;;;;;7.45;56.86;99395.91;4362537;32;34247;-69
2022/01/30 07:39:51;;;;;;;1.10;0.68;;;;;;;8.16;54.25;99428.97;4363470;32;33641;-69
2022/01/30 07:42:19;;;;;;;1.77;0.70;;;;;;;8.48;53.33;99439.34;4363486;32;33913;-72
2022/01/30 07:44:47;;;;;;;1.05;0.80;;;;;;;8.57;52.04;99421.66;4361284;32;33953;-71
2022/01/30 07:47:17;;;;;;;1.52;0.57;;;;;;;8.24;52.51;99420.47;4363474;32;35071;-70
2022/01/30 07:49:49;;;;;;;2.67;0.80;;;;;;;8.75;51.01;99418.72;4363184;32;34277;-72
2022/01/30 07:52:20;;;;;;;1.37;0.60;;;;;;;8.92;49.67;99434.12;4363283;32;34049;-69
2022/01/30 07:54:48;;;;;;;2.72;0.80;;;;;;;9.05;49.40;99420.28;4362827;32;34293;-71
2022/01/30 07:57:17;;;;;;;0.95;0.85;;;;;;;8.87;48.53;99439.47;4363342;32;34282;-69
2022/01/30 07:59:44;;;;;;;1.58;0.80;;;;;;;9.24;47.52;99410.84;4363509;32;33627;-68
2022/01/30 08:02:12;;;;;;;1.35;0.90;;;;;;;8.78;47.75;99426.34;4362648;32;34870;-68
2022/01/30 08:04:40;;;;;;;1.40;0.80;;;;;;;9.23;47.00;99435.44;4361640;32;33860;-67
2022/01/30 08:07:07;;;;;;;2.17;0.80;;;;;;;8.75;48.42;99439.56;4363213;32;34249;-68
2022/01/30 08:09:37;;;;;;;1.27;0.73;;;;;;;9.28;47.34;99456.34;4362715;32;33490;-69
2022/01/30 08:12:05;;;;;;;1.08;0.70;;;;;;;9.66;46.79;99463.69;4360926;32;34046;-67
2022/01/30 08:14:33;;;;;;;1.62;1.00;;;;;;;10.23;46.72;99492.31;4361197;32;34368;-67
2022/01/30 08:17:00;;;;;;;1.85;1.08;;;;;;;9.90;49.29;99491.37;4365278;32;33710;-67
2022/01/30 08:19:28;;;;;;;1.90;0.90;;;;;;;9.87;49.72;99489.19;4375654;32;33650;-71
2022/01/30 08:22:02;;;;;;;2.30;1.02;;;;;;;10.26;48.99;99491.84;4377005;32;34588;-70
2022/01/30 08:24:30;;;;;;;1.45;0.75;;;;;;;9.88;49.09;99496.22;4376590;32;34796;-70
2022/01/30 08:26:58;;;;;;;1.62;1.20;;;;;;;8.52;53.70;99510.78;4376965;32;33819;-70
2022/01/30 08:29:26;;;;;;;4.62;1.02;;;;;;;8.61;55.07;99495.81;4377109;32;33589;-70
2022/01/30 08:31:55;;;;;;;2.47;1.20;;;;;;;8.46;54.77;99499.03;4376808;32;33741;-69
2022/01/30 08:34:22;;;;;;;3.00;0.98;;;;;;;8.71;54.71;99492.50;4376956;32;33881;-70
2022/01/30 08:39:10;;;;;;;7.07;1.30;;;;;;;9.47;53.36;99517.31;4523370;31;128008;-67
2022/01/30 08:41:38;;;;;;;2.12;0.90;;;;;;;9.47;53.36;99517.31;4512327;31;32955;-69
2022/01/30 08:44:05;;;;;;;1.98;0.95;;;;;;;9.43;52.24;99505.31;4512157;31;33888;-69
2022/01/30 08:46:33;;;;;;;2.05;0.90;;;;;;;9.45;52.34;99520.25;4512073;31;34435;-69
2022/01/30 08:49:01;;;;;;;3.67;1.10;;;;;;;9.26;52.37;99534.28;4511751;31;34454;-71
2022/01/30 08:51:28;;;;;;;2.92;1.17;;;;;;;9.32;51.11;99503.53;4509458;31;33346;-75
2022/01/30 08:53:57;;;;;;;1.25;0.90;;;;;;;9.57;50.08;99501.22;4512171;31;34505;-69
2022/01/30 08:56:28;;;;;;;2.95;1.10;;;;;;;9.78;49.54;99507.75;4495835;31;33944;-71
2022/01/30 08:58:56;;;;;;;4.62;0.90;;;;;;;10.44;47.24;99505.09;4495927;32;33836;-70
2022/01/30 09:01:24;;;;;;;1.30;0.80;;;;;;;9.88;47.23;99538.78;4496403;31;33650;-70
2022/01/30 09:03:52;;;;;;;1.90;0.90;;;;;;;9.63;47.03;99519.19;4494954;32;34828;-69
2022/01/30 09:06:19;;;;;;;1.92;0.80;;;;;;;10.46;45.16;99527.34;4495988;31;34996;-69
2022/01/30 09:08:49;;;;;;;2.80;0.85;;;;;;;9.88;45.54;99531.47;4510704;31;34784;-68
2022/01/30 09:11:16;;;;;;;2.83;1.25;;;;;;;10.11;44.59;99543.97;4511425;31;33216;-69
2022/01/30 09:13:44;;;;;;;2.37;0.90;;;;;;;10.00;45.24;99529.47;4512316;31;33895;-68
2022/01/30 09:16:11;;;;;;;2.12;1.12;;;;;;;10.77;43.11;99551.28;4512046;31;35337;-67
2022/01/30 09:18:39;;;;;;;2.15;1.08;;;;;;;10.96;42.17;99530.06;4505866;31;33739;-68
2022/01/30 09:21:06;;;;;;;1.87;1.00;;;;;;;10.88;42.86;99537.59;4496139;32;34545;-67
2022/01/30 09:23:33;;;;;;;4.40;1.42;;;;;;;10.61;42.07;99553.03;4496065;31;34356;-68
2022/01/30 09:26:01;;;;;;;3.33;1.20;;;;;;;10.33;43.20;99564.91;4495788;32;34209;-68
2022/01/30 09:28:28;;;;;;;2.90;0.80;;;;;;;9.97;43.92;99542.69;4495685;32;33527;-69
2022/01/30 09:30:56;;;;;;;5.15;1.25;;;;;;;10.09;44.78;99546.13;4496119;31;33013;-70
2022/01/30 09:33:23;;;;;;;2.03;0.68;;;;;;;11.02;42.44;99546.13;4494736;32;33814;-69
2022/01/30 09:35:51;;;;;;;1.62;0.80;;;;;;;10.66;42.09;99553.06;4495594;31;34270;-68
2022/01/30 09:38:18;;;;;;;2.08;0.70;;;;;;;10.99;41.39;99571.09;4504855;31;33805;-68
2022/01/30 09:40:46;;;;;;;2.05;0.80;;;;;;;10.45;42.29;99547.44;4511382;31;33187;-70
2022/01/30 09:43:14;;;;;;;1.25;0.70;;;;;;;9.58;43.69;99545.38;4510451;31;34778;-69
2022/01/30 09:45:42;;;;;;;3.62;0.93;;;;;;;9.43;43.76;99548.66;4510345;31;34091;-69
2022/01/30 09:48:10;;;;;;;2.10;1.35;;;;;;;9.38;44.76;99543.16;4510165;31;33354;-69
2022/01/30 09:50:37;;;;;;;1.87;0.98;;;;;;;9.45;44.23;99541.91;4486287;31;33498;-68
2022/01/30 09:53:05;;;;;;;1.45;0.90;;;;;;;9.96;43.56;99533.75;4499848;31;33758;-69
2022/01/30 09:55:33;;;;;;;1.27;0.62;;;;;;;9.39;46.18;99531.25;4500933;31;33998;-69
2022/01/30 09:58:01;;;;;;;2.42;0.80;;;;;;;9.35;45.50;99539.06;4500911;31;33785;-70
2022/01/30 10:00:28;;;;;;;2.20;0.70;;;;;;;9.19;45.76;99537.16;4500723;31;33112;-69
2022/01/30 10:02:56;;;;;;;0.90;0.70;;;;;;;10.08;43.82;99549.88;4501218;31;33639;-69
2022/01/30 10:05:23;;;;;;;2.90;1.02;;;;;;;10.17;44.45;99548.41;4501075;31;33778;-71
2022/01/30 10:07:52;;;;;;;1.60;1.00;;;;;;;9.72;45.09;99562.94;4500795;31;33871;-70
2022/01/30 10:10:23;;;;;;;2.08;0.95;;;;;;;9.63;44.93;99548.12;4500996;31;33260;-68
2022/01/30 10:13:03;;;;;;;2.33;1.25;;;;;;;9.30;46.25;99555.22;4499974;31;34435;-69
2022/01/30 10:15:32;;;;;;;2.50;0.88;;;;;;;8.58;47.38;99575.53;4500946;31;34990;-69
2022/01/30 10:18:03;;;;;;;1.80;0.80;;;;;;;8.54;47.27;99596.00;4499500;31;34054;-70
2022/01/30 10:20:37;;;;;;;0.60;0.60;;;;;;;7.91;49.28;99619.22;4501057;31;33395;-70
2022/01/30 10:23:08;;;;;;;3.10;0.93;;;;;;;7.37;54.42;99653.50;4500063;31;34494;-69
2022/01/30 10:25:47;;;;;;;1.25;0.70;;;;;;;7.05;55.62;99640.25;4499780;31;34857;-69
2022/01/30 10:28:18;;;;;;;4.55;1.00;;;;;;;6.32;56.80;99595.31;4500784;31;34460;-72
2022/01/30 10:31:01;;;;;;;1.55;0.80;;;;;;;6.47;55.09;99584.16;4500915;31;33588;-69
2022/01/30 10:33:39;;;;;;;1.52;0.90;;;;;;;6.69;53.09;99587.22;4499698;31;34448;-69
2022/01/30 10:36:11;;;;;;;2.60;1.17;;;;;;;6.83;51.81;99585.19;4500637;31;34198;-68
2022/01/30 10:38:46;;;;;;;2.08;0.98;;;;;;;6.92;51.80;99591.88;4500245;31;33867;-68
2022/01/30 10:41:21;;;;;;;1.92;1.05;;;;;;;6.87;51.16;99594.44;4500771;31;34181;-69
2022/01/30 10:44:00;;;;;;;5.72;1.17;;;;;;;6.71;51.87;99575.13;4500903;31;33869;-68
2022/01/30 10:46:33;;;;;;;2.85;1.20;;;;;;;7.21;49.81;99590.22;4500642;31;34312;-67
2022/01/30 10:49:03;;;;;;;6.68;3.08;;;;;;;7.02;49.72;99585.94;4499572;31;33692;-70
2022/01/30 10:51:31;;;;;;;3.12;1.55;;;;;;;7.33;49.41;99590.25;4500981;31;33474;-69
2022/01/30 10:54:06;;;;;;;4.97;1.20;;;;;;;7.28;47.28;99599.03;4499438;31;33914;-68
2022/01/30 10:56:34;;;;;;;3.55;0.75;;;;;;;7.51;47.21;99581.25;4499451;31;34990;-69
2022/01/30 10:59:16;;;;;;;3.47;1.00;;;;;;;7.59;46.59;99572.81;4500355;31;34310;-70
2022/01/30 11:01:48;;;;;;;1.35;0.85;;;;;;;7.63;46.24;99589.37;4499731;31;33201;-69
2022/01/30 11:04:28;;;;;;;1.77;0.98;;;;;;;7.98;45.41;99587.47;4486666;31;33981;-68
2022/01/30 11:06:59;;;;;;;2.78;1.17;;;;;;;8.53;45.22;99578.16;4500852;31;33647;-75
2022/01/30 11:09:40;;;;;;;1.50;1.00;;;;;;;8.74;44.07;99576.66;4499180;31;34364;-68
2022/01/30 11:12:12;;;;;;;2.80;0.90;;;;;;;9.40;43.11;99557.28;4499770;31;33109;-68
2022/01/30 11:17:17;;;;;;;1.75;1.10;;;;;;;9.29;42.30;99550.03;4499315;31;34206;-69
2022/01/30 11:19:51;;;;;;;2.35;0.85;;;;;;;9.30;42.29;99554.41;4500354;31;33692;-66
2022/01/30 11:22:21;;;;;;;2.37;1.00;;;;;;;8.70;43.20;99550.34;4496967;31;34267;-70
2022/01/30 11:25:01;;;;;;;3.53;1.00;;;;;;;8.99;42.34;99526.81;4499264;31;34671;-69
2022/01/30 11:27:29;;;;;;;2.67;1.00;;;;;;;9.10;42.07;99552.97;4500165;31;33719;-69
2022/01/30 11:29:56;;;;;;;4.25;1.05;;;;;;;8.85;41.72;99556.03;4486174;31;34052;-70
2022/01/30 11:32:25;;;;;;;3.70;1.30;;;;;;;8.25;41.07;99559.13;4496520;31;33493;-71
2022/01/30 11:34:55;;;;;;;2.67;1.00;;;;;;;8.31;42.22;99558.19;4500304;31;34417;-68
2022/01/30 11:37:26;;;;;;;3.00;1.10;;;;;;;8.25;43.49;99540.22;4498995;31;34143;-69
2022/01/30 11:39:55;;;;;;;2.22;1.10;;;;;;;7.72;46.39;99566.34;4499001;31;33831;-67
2022/01/30 11:42:27;;;;;;;4.00;1.20;;;;;;;7.96;47.33;99572.56;4500494;31;33323;-67
2022/01/30 11:45:03;;;;;;;2.85;1.20;;;;;;;7.91;48.21;99553.56;4498795;31;34758;-66
2022/01/30 11:47:55;;;;;;;3.22;1.73;;;;;;;7.91;48.41;99575.16;4500296;31;34199;-66
2022/01/30 11:50:25;;;;;;;2.70;1.42;;;;;;;7.03;52.22;99545.25;4499866;31;34662;-69
2022/01/30 11:53:15;;;;;;;3.95;1.10;;;;;;;7.28;51.92;99531.59;4492622;31;33877;-70
2022/01/30 11:55:48;;;;;;;1.58;1.00;;;;;;;7.31;48.34;99516.78;4482759;32;33949;-65
2022/01/30 11:58:34;;;;;;;2.42;1.20;;;;;;;7.89;47.30;99504.34;4483512;32;33822;-65
2022/01/30 12:01:12;;;;;;;3.30;1.05;;;;;;;7.93;45.33;99510.94;4484066;32;33911;-66
2022/01/30 12:04:10;;;;;;;3.25;1.10;;;;;;;8.45;44.84;99492.00;4481970;32;33972;-67
2022/01/30 12:06:40;;;;;;;4.10;1.02;;;;;;;8.50;42.60;99494.00;4482181;31;33891;-70
2022/01/30 12:09:16;;;;;;;2.28;0.80;;;;;;;8.94;42.16;99480.69;4483433;32;34196;-67
2022/01/30 12:11:47;;;;;;;2.20;0.93;;;;;;;9.36;40.69;99504.69;4483298;32;33971;-67
2022/01/30 12:14:20;;;;;;;2.15;0.85;;;;;;;8.90;41.79;99504.75;4483794;32;33506;-69
2022/01/30 12:17:00;;;;;;;3.80;1.10;;;;;;;8.37;42.97;99479.66;4483583;32;34014;-69
2022/01/30 12:19:31;;;;;;;2.15;1.05;;;;;;;8.93;41.23;99493.41;4482455;32;34280;-70
2022/01/30 12:21:59;;;;;;;1.48;1.10;;;;;;;8.80;40.83;99491.03;4483280;32;33658;-68
2022/01/30 12:24:28;;;;;;;3.65;1.40;;;;;;;8.99;40.07;99494.34;4482013;32;33248;-66
2022/01/30 12:27:00;;;;;;;3.00;1.12;;;;;;;8.88;40.07;99504.16;4483765;32;33564;-69
2022/01/30 12:29:45;;;;;;;5.55;1.23;;;;;;;8.36;40.78;99534.78;4482611;32;34971;-70
2022/01/30 12:35:01;;;;;;;2.60;1.40;;;;;;;8.45;41.72;99508.22;4483258;32;32825;-70
2022/01/30 12:37:34;;;;;;;3.60;1.10;;;;;;;8.25;41.30;99511.31;4492818;31;34459;-69
2022/01/30 12:40:22;;;;;;;2.10;1.08;;;;;;;8.15;42.42;99490.31;4499183;31;34813;-69
2022/01/30 12:42:50;;;;;;;2.20;1.00;;;;;;;8.49;42.45;99479.66;4498218;31;34471;-70
2022/01/30 12:45:18;;;;;;;1.70;0.88;;;;;;;8.54;41.32;99487.03;4499070;31;33323;-68
2022/01/30 12:47:49;;;;;;;2.55;1.10;;;;;;;8.35;42.29;99494.47;4498725;31;34492;-67
2022/01/30 12:50:17;;;;;;;3.35;1.48;;;;;;;8.57;40.94;99513.59;4497855;31;34241;-66
2022/01/30 12:52:52;;;;;;;3.35;1.67;;;;;;;8.60;41.17;99500.41;4497091;31;33953;-65
2022/01/30 12:55:20;;;;;;;;;;;;;;;8.80;40.67;99481.03;4499433;31;34152;-67